Flight Track Log - Related Links

Times and Time Zones

All times are in EDT time to prevent confusion due to time zone crossing. See the CTL17 flight status page for this flight to view local times or setup timezone preferences in your user account.

Time Position Orientation Groundspeed Altitude Reporting Facility
EDT Latitude Longitude Course Direction KTS MPH feet Rate Location/Type
Tue 05:01:00 PM 43.3904 -84.0180 160° South  Level Estimated
Tue 05:02:00 PM 43.3637 -83.9994 153° Southeast  Level FlightAware Approximate
Tue 05:03:00 PM 43.3371 -83.9809 153° Southeast  Level FlightAware Approximate
Tue 05:04:00 PM 43.3085 -83.9689 160° South  Level Estimated
Tue 05:05:00 PM 43.2809 -83.9532 157° South  Level FlightAware Approximate
Tue 05:06:00 PM 43.2533 -83.9375 157° South  Level FlightAware Approximate
Tue 05:07:00 PM 43.2246 -83.9258 163° South  Level Estimated
Tue 05:08:00 PM 43.1964 -83.9124 161° South  Level FlightAware Approximate
Tue 05:09:00 PM 43.1682 -83.8990 161° South  Level FlightAware Approximate
Tue 05:10:00 PM 43.1399 -83.8856 161° South  Level FlightAware Approximate
Tue 05:11:00 PM 43.1113 -83.8741 160° South  Level Estimated
Tue 05:11:35 PM 42.9119 -83.7781 160° South 158 182 5,100  Level Cleveland Center
Tue 05:12:00 PM 42.8956 -83.7689 158° South 158 182 5,100  Level Cleveland Center
Tue 05:12:00 PM 43.0832 -83.8599 160° South  Level FlightAware Approximate
Tue 05:12:55 PM 42.8586 -83.7469 156° South 159 183 5,100  Level Cleveland Center
Tue 05:13:00 PM 43.0552 -83.8456 160° South  Level FlightAware Approximate
Tue 05:13:56 PM 42.8153 -83.7306 164° South 157 181 5,100  Level Cleveland Center
Tue 05:14:00 PM 43.0272 -83.8314 160° South  Level FlightAware Approximate
Tue 05:14:57 PM 42.7719 -83.7172 167° South 157 181 5,100  Level Cleveland Center
Tue 05:15:00 PM 42.9992 -83.8172 160° South  Level FlightAware Approximate
Tue 05:15:51 PM 42.7328 -83.7039 166° South 159 183 5,100  Level Cleveland Center
Tue 05:16:00 PM 42.9712 -83.8030 160° South  Level FlightAware Approximate
Tue 05:16:58 PM 42.6850 -83.6903 168° South 159 183 4,900  Level Cleveland Center
Tue 05:17:59 PM 42.6397 -83.6739 165° South 168 193 4,300 -393 Descending Cleveland Center
Tue 05:19:00 PM 42.5942 -83.6633 170° South 156 180 4,100 -103 Descending Cleveland Center
Tue 05:19:55 PM 42.5569 -83.6531 169° South 146 168 4,100 -103 Level Cleveland Center
Tue 05:20:56 PM 42.5175 -83.6369 163° South 147 169 3,900 -347 Descending Cleveland Center
Tue 05:21:56 PM 42.4764 -83.6153 159° South 159 183 3,400 -443 Descending Cleveland Center
Tue 05:22:58 PM 42.4353 -83.5964 161° South 158 182 3,000 -197 Descending Cleveland Center
Tue 05:23:58 PM 42.3961 -83.5778 161° South 149 171 3,000 -198 Level Cleveland Center
Tue 05:24:59 PM 42.3550 -83.5589 161° South 152 175 2,600 -443 Descending Cleveland Center
Tue 05:26:00 PM 42.3136 -83.5428 164° South 156 180 2,100 -469 Descending Cleveland Center
Tue 05:27:07 PM 42.2703 -83.5294 167° South 134 154 1,600 -448 Descending Cleveland Center
Tue 05:29:00 PM 42.2333 -83.5167 160° South  Level FlightAware Approximate
Tue 05:36:00 PM 42.2393 -83.5310 160° South  Level Estimated
Tue 05:37:00 PM 42.2393 -83.5310 160° South  Level Estimated

Login

Don't have an account? Register now (free) for customized features, flight alerts, and more!